createdAt,value
2023-01-09T00:00:36.174Z,7.23
2023-01-09T00:03:02.986Z,7.70
2023-01-09T00:05:29.691Z,7.60
2023-01-09T00:07:56.360Z,7.77
2023-01-09T00:10:23.029Z,7.60
2023-01-09T00:12:49.745Z,7.30
2023-01-09T00:15:16.582Z,7.80
2023-01-09T00:17:43.336Z,7.57
2023-01-09T00:20:10.990Z,7.83
2023-01-09T00:22:37.913Z,7.43
2023-01-09T00:25:05.702Z,8.30
2023-01-09T00:27:33.869Z,7.87
2023-01-09T00:30:01.036Z,8.10
2023-01-09T00:32:28.919Z,8.10
2023-01-09T00:34:56.248Z,7.20
2023-01-09T00:37:23.343Z,8.37
2023-01-09T00:39:50.106Z,7.47
2023-01-09T00:42:21.806Z,8.50
2023-01-09T00:44:54.064Z,7.83
2023-01-09T00:47:32.447Z,7.73
2023-01-09T00:50:15.743Z,8.33
2023-01-09T00:52:43.245Z,8.90
2023-01-09T00:55:11.777Z,6.80
2023-01-09T00:57:38.567Z,10.40
2023-01-09T01:00:05.984Z,6.30
2023-01-09T01:02:32.807Z,7.23
2023-01-09T01:05:18.154Z,7.23
2023-01-09T01:07:45.338Z,8.00
2023-01-09T01:10:21.491Z,7.83
2023-01-09T01:12:49.331Z,7.67
2023-01-09T01:15:17.043Z,7.63
2023-01-09T01:17:44.114Z,8.60
2023-01-09T01:20:15.048Z,7.50
2023-01-09T01:22:44.491Z,7.90
2023-01-09T01:25:12.763Z,7.23
2023-01-09T01:27:39.512Z,7.50
2023-01-09T01:30:08.234Z,7.17
2023-01-09T01:32:35.081Z,6.60
2023-01-09T01:35:02.028Z,7.30
2023-01-09T01:37:28.883Z,7.60
2023-01-09T01:39:55.749Z,7.70
2023-01-09T01:42:23.237Z,8.20
2023-01-09T01:45:08.183Z,7.30
2023-01-09T01:47:44.190Z,7.13
2023-01-09T01:50:19.598Z,8.30
2023-01-09T01:52:52.525Z,8.23
2023-01-09T01:55:20.079Z,7.60
2023-01-09T01:57:52.669Z,7.83
2023-01-09T02:00:23.653Z,8.40
2023-01-09T02:02:50.360Z,7.93
2023-01-09T02:05:17.141Z,8.57
2023-01-09T02:07:44.270Z,7.57
2023-01-09T02:10:11.544Z,8.00
2023-01-09T02:12:38.640Z,8.57
2023-01-09T02:15:14.249Z,8.00
2023-01-09T02:17:41.320Z,8.37
2023-01-09T02:20:08.404Z,7.67
2023-01-09T02:22:55.736Z,8.07
2023-01-09T02:25:41.566Z,8.70
2023-01-09T02:28:30.279Z,7.90
2023-01-09T02:31:06.493Z,8.00
2023-01-09T02:33:36.418Z,9.07
2023-01-09T02:36:09.607Z,9.53
2023-01-09T02:38:42.168Z,9.37
2023-01-09T02:41:15.620Z,8.63
2023-01-09T02:43:42.708Z,8.90
2023-01-09T02:46:19.354Z,9.30
2023-01-09T02:48:46.746Z,8.30
2023-01-09T02:51:20.231Z,8.87
2023-01-09T02:53:56.014Z,8.67
2023-01-09T02:56:36.218Z,8.73
2023-01-09T02:59:10.042Z,8.23
2023-01-09T03:01:52.206Z,8.93
2023-01-09T03:04:38.717Z,8.67
2023-01-09T03:07:10.657Z,8.73
2023-01-09T03:09:39.009Z,8.43
2023-01-09T03:12:18.288Z,7.67
2023-01-09T03:14:47.273Z,9.60
2023-01-09T03:17:15.931Z,8.60
2023-01-09T03:19:43.791Z,8.80
2023-01-09T03:22:10.946Z,8.80
2023-01-09T03:24:38.880Z,8.67
2023-01-09T03:27:09.539Z,8.40
2023-01-09T03:29:37.430Z,8.80
2023-01-09T03:32:04.590Z,8.17
2023-01-09T03:34:31.743Z,9.03
2023-01-09T03:36:58.945Z,9.83
2023-01-09T03:39:26.060Z,8.57
2023-01-09T03:41:53.158Z,8.33
2023-01-09T03:44:20.258Z,7.90
2023-01-09T03:46:47.884Z,8.97
2023-01-09T03:49:15.052Z,8.50
2023-01-09T03:51:42.139Z,7.77
2023-01-09T03:54:09.304Z,7.83
2023-01-09T03:56:36.410Z,7.30
2023-01-09T03:59:03.477Z,7.47
2023-01-09T04:01:30.693Z,7.33
2023-01-09T04:03:58.028Z,6.10
2023-01-09T04:06:25.210Z,6.93
2023-01-09T04:08:52.534Z,7.10
2023-01-09T04:11:22.340Z,6.17
2023-01-09T04:13:49.465Z,5.80
2023-01-09T04:16:16.677Z,6.50
2023-01-09T04:18:43.859Z,5.97
2023-01-09T04:21:11.124Z,5.50
2023-01-09T04:23:38.223Z,4.93
2023-01-09T04:26:05.867Z,4.90
2023-01-09T04:28:32.967Z,5.17
2023-01-09T04:31:00.287Z,5.10
2023-01-09T04:33:27.385Z,5.30
2023-01-09T04:35:54.565Z,6.00
2023-01-09T04:38:21.738Z,4.50
2023-01-09T04:40:49.285Z,5.10
2023-01-09T04:43:16.542Z,3.87
2023-01-09T04:45:43.717Z,4.60
2023-01-09T04:48:10.938Z,3.90
2023-01-09T04:50:38.043Z,4.67
2023-01-09T04:53:05.930Z,4.37
2023-01-09T04:55:33.335Z,4.37
2023-01-09T04:58:00.514Z,3.50
2023-01-09T05:00:27.748Z,4.60
2023-01-09T05:02:54.952Z,3.67
2023-01-09T05:05:22.069Z,4.13
2023-01-09T05:07:49.231Z,2.83
2023-01-09T05:10:16.390Z,3.67
2023-01-09T05:12:43.472Z,3.33
2023-01-09T05:15:10.798Z,3.90
2023-01-09T05:17:38.269Z,2.93
2023-01-09T05:20:05.595Z,3.30
2023-01-09T05:22:32.752Z,3.40
2023-01-09T05:25:00.613Z,2.70
2023-01-09T05:27:27.870Z,3.77
2023-01-09T05:29:54.992Z,3.20
2023-01-09T05:32:22.130Z,3.10
2023-01-09T05:34:49.218Z,3.40
2023-01-09T05:37:16.376Z,3.10
2023-01-09T05:39:43.483Z,3.00
2023-01-09T05:42:10.645Z,3.13
2023-01-09T05:44:37.805Z,3.30
2023-01-09T05:47:04.965Z,2.40
2023-01-09T05:49:32.106Z,2.60
2023-01-09T05:51:59.210Z,2.63
2023-01-09T05:54:26.387Z,2.50
2023-01-09T05:56:53.526Z,2.43
2023-01-09T05:59:20.682Z,2.70
2023-01-09T06:01:47.938Z,3.00
2023-01-09T06:04:15.083Z,2.23
2023-01-09T06:06:42.296Z,2.20
2023-01-09T06:09:09.446Z,2.50
2023-01-09T06:11:38.330Z,2.23
2023-01-09T06:14:05.877Z,2.73
2023-01-09T06:16:33.064Z,2.33
2023-01-09T06:19:00.186Z,2.30
2023-01-09T06:21:29.412Z,2.53
2023-01-09T06:23:57.006Z,2.33
2023-01-09T06:26:24.287Z,2.27
2023-01-09T06:28:51.604Z,3.03
2023-01-09T06:31:18.826Z,2.40
2023-01-09T06:33:46.018Z,2.00
2023-01-09T06:36:13.108Z,1.90
2023-01-09T06:38:40.285Z,2.10
2023-01-09T06:41:07.469Z,2.43
2023-01-09T06:43:34.658Z,2.00
2023-01-09T06:46:01.953Z,2.17
2023-01-09T06:48:29.054Z,1.70
2023-01-09T06:50:56.323Z,1.87
2023-01-09T06:53:23.649Z,2.27
2023-01-09T06:55:50.755Z,1.70
2023-01-09T06:58:18.195Z,1.87
2023-01-09T07:00:45.419Z,2.30
2023-01-09T07:03:19.849Z,2.03
2023-01-09T07:05:47.615Z,1.70
2023-01-09T07:08:15.024Z,2.13
2023-01-09T07:10:45.465Z,1.73
2023-01-09T07:13:12.581Z,2.07
2023-01-09T07:15:40.065Z,1.50
2023-01-09T07:18:07.265Z,2.87
2023-01-09T07:20:34.445Z,1.70
2023-01-09T07:23:01.586Z,1.97
2023-01-09T07:25:28.672Z,1.80
2023-01-09T07:27:55.779Z,2.00
2023-01-09T07:30:22.928Z,5.00
2023-01-09T07:32:50.015Z,1.83
2023-01-09T07:35:17.631Z,1.80
2023-01-09T07:37:44.773Z,1.63
2023-01-09T07:40:12.133Z,1.40
2023-01-09T07:42:39.311Z,1.60
2023-01-09T07:45:07.074Z,1.80
2023-01-09T07:47:34.173Z,1.50
2023-01-09T07:50:01.260Z,2.80
2023-01-09T07:52:28.417Z,2.97
2023-01-09T07:54:57.927Z,1.60
2023-01-09T07:57:25.043Z,2.60
2023-01-09T07:59:52.159Z,1.63
2023-01-09T08:02:19.409Z,1.50
2023-01-09T08:04:46.681Z,1.77
2023-01-09T08:07:13.843Z,1.87
2023-01-09T08:09:40.972Z,1.73
2023-01-09T08:12:08.099Z,1.80
2023-01-09T08:14:35.956Z,2.03
2023-01-09T08:17:03.108Z,4.17
2023-01-09T08:19:30.201Z,2.37
2023-01-09T08:21:57.331Z,1.87
2023-01-09T08:24:24.457Z,2.50
2023-01-09T08:26:51.569Z,3.10
2023-01-09T08:29:18.757Z,2.90
2023-01-09T08:31:45.904Z,4.90
2023-01-09T08:34:13.011Z,3.03
2023-01-09T08:36:40.122Z,6.73
2023-01-09T08:39:07.224Z,3.30
2023-01-09T08:41:52.873Z,4.17
2023-01-09T08:44:38.847Z,2.30
2023-01-09T08:47:06.014Z,4.80
2023-01-09T08:49:37.278Z,2.30
2023-01-09T08:52:05.292Z,2.30
2023-01-09T08:54:32.521Z,3.13
2023-01-09T08:56:59.611Z,2.53
2023-01-09T08:59:26.754Z,6.13
2023-01-09T09:01:53.919Z,2.67
2023-01-09T09:04:21.122Z,2.60
2023-01-09T09:06:48.423Z,3.70
2023-01-09T09:09:15.689Z,2.33
2023-01-09T09:11:42.801Z,2.80
2023-01-09T09:14:28.565Z,3.07
2023-01-09T09:16:55.985Z,3.10
2023-01-09T09:19:23.191Z,3.20
2023-01-09T09:21:50.321Z,3.00
2023-01-09T09:24:17.425Z,4.10
2023-01-09T09:26:44.853Z,4.93
2023-01-09T09:29:12.448Z,2.90
2023-01-09T09:31:39.825Z,2.63
2023-01-09T09:34:08.297Z,4.13
2023-01-09T09:36:35.659Z,2.80
2023-01-09T09:39:02.938Z,3.00
2023-01-09T09:41:54.896Z,5.90
2023-01-09T09:44:43.857Z,5.87
2023-01-09T09:47:31.865Z,3.50
2023-01-09T09:50:17.600Z,4.00
2023-01-09T09:52:50.514Z,4.20
2023-01-09T09:55:23.481Z,4.37
2023-01-09T09:57:51.273Z,5.00
2023-01-09T10:00:23.844Z,4.47
2023-01-09T10:02:57.226Z,4.60
2023-01-09T10:05:31.575Z,4.30
2023-01-09T10:08:11.606Z,4.00
2023-01-09T10:10:51.190Z,3.27
2023-01-09T10:13:38.533Z,4.00
2023-01-09T10:16:15.980Z,3.40
2023-01-09T10:19:01.832Z,3.53
2023-01-09T10:21:46.537Z,3.83
2023-01-09T10:24:21.837Z,4.63
2023-01-09T10:26:51.782Z,3.83
2023-01-09T10:29:24.702Z,3.93
2023-01-09T10:32:03.906Z,4.80
2023-01-09T10:34:37.359Z,6.03
2023-01-09T10:37:08.560Z,5.23
2023-01-09T10:39:35.681Z,4.40
2023-01-09T10:42:06.184Z,4.43
2023-01-09T10:44:38.947Z,4.37
2023-01-09T10:47:17.045Z,4.43
2023-01-09T10:49:45.727Z,4.10
2023-01-09T10:52:16.894Z,6.63
2023-01-09T10:54:49.312Z,6.00
2023-01-09T10:57:23.952Z,4.50
2023-01-09T10:59:51.056Z,4.63
2023-01-09T11:02:30.061Z,4.53
2023-01-09T11:04:57.228Z,4.57
2023-01-09T11:07:27.625Z,7.27
2023-01-09T11:09:57.524Z,5.70
2023-01-09T11:12:32.258Z,7.07
2023-01-09T11:15:20.472Z,7.07
2023-01-09T11:17:48.169Z,6.43
2023-01-09T11:20:15.263Z,5.80
2023-01-09T11:22:43.994Z,6.70
2023-01-09T11:25:12.793Z,5.60
2023-01-09T11:27:39.953Z,5.47
2023-01-09T11:30:09.895Z,5.83
2023-01-09T11:32:37.139Z,5.40
2023-01-09T11:35:21.778Z,5.03
2023-01-09T11:37:50.664Z,6.67
2023-01-09T11:40:19.579Z,5.97
2023-01-09T11:43:06.618Z,4.90
2023-01-09T11:45:35.866Z,7.13
2023-01-09T11:48:04.382Z,5.63
2023-01-09T11:50:32.342Z,5.50
2023-01-09T11:53:16.158Z,5.37
2023-01-09T11:55:44.000Z,5.00
2023-01-09T11:58:18.716Z,4.77
2023-01-09T12:01:06.117Z,4.73
2023-01-09T12:03:47.955Z,4.97
2023-01-09T12:06:27.247Z,5.30
2023-01-09T12:08:59.897Z,5.97
2023-01-09T12:11:42.943Z,5.90
2023-01-09T12:14:19.259Z,8.60
2023-01-09T12:17:04.994Z,10.90
2023-01-09T12:19:38.126Z,11.60
2023-01-09T12:22:16.892Z,10.60
2023-01-09T12:24:43.987Z,9.20
2023-01-09T12:27:26.715Z,10.20
2023-01-09T12:30:01.281Z,9.93
2023-01-09T12:32:47.026Z,11.13
2023-01-09T12:35:22.027Z,11.60
2023-01-09T12:37:49.103Z,8.47
2023-01-09T12:40:16.217Z,7.70
2023-01-09T12:43:02.088Z,8.77
2023-01-09T12:45:29.188Z,8.67
2023-01-09T12:48:00.367Z,9.07
2023-01-09T12:50:46.839Z,8.27
2023-01-09T12:53:27.816Z,8.93
2023-01-09T12:56:01.312Z,11.80
2023-01-09T12:58:28.352Z,8.77
2023-01-09T13:00:56.315Z,9.13
2023-01-09T13:03:35.212Z,8.50
2023-01-09T13:06:03.765Z,9.30
2023-01-09T13:08:32.635Z,8.47
2023-01-09T13:11:20.253Z,8.73
2023-01-09T13:13:53.829Z,14.67
2023-01-09T13:16:42.123Z,10.03
2023-01-09T13:19:27.867Z,8.70
2023-01-09T13:21:55.646Z,10.40
2023-01-09T13:24:28.409Z,10.23
2023-01-09T13:27:11.448Z,10.50
2023-01-09T13:29:41.767Z,9.73
2023-01-09T13:32:24.105Z,10.43
2023-01-09T13:34:52.997Z,9.50
2023-01-09T13:37:22.581Z,9.67
2023-01-09T13:39:56.785Z,10.07
2023-01-09T13:42:36.672Z,8.50
2023-01-09T13:45:11.631Z,8.60
2023-01-09T13:47:38.742Z,9.10
2023-01-09T13:50:11.653Z,9.10
2023-01-09T13:52:42.718Z,7.90
2023-01-09T13:55:16.312Z,9.00
2023-01-09T13:57:45.342Z,9.33
2023-01-09T14:00:15.608Z,8.57
2023-01-09T14:02:46.955Z,10.07
2023-01-09T14:05:15.762Z,9.63
2023-01-09T14:07:42.906Z,9.10
2023-01-09T14:10:27.069Z,11.50
2023-01-09T14:12:55.485Z,7.60
2023-01-09T14:15:44.876Z,8.07
2023-01-09T14:18:20.284Z,9.00
2023-01-09T14:20:58.894Z,9.60
2023-01-09T14:23:49.845Z,9.00
2023-01-09T14:26:18.265Z,7.37
2023-01-09T14:28:45.434Z,7.77
2023-01-09T14:31:27.299Z,8.90
2023-01-09T14:34:23.911Z,7.33
2023-01-09T14:36:59.708Z,7.30
2023-01-09T14:39:27.671Z,9.57
2023-01-09T14:41:57.744Z,6.57
2023-01-09T14:44:43.453Z,7.57
2023-01-09T14:47:15.455Z,7.70
2023-01-09T14:49:44.193Z,6.67
2023-01-09T14:52:16.321Z,9.33
2023-01-09T14:54:44.534Z,7.10
2023-01-09T14:57:24.524Z,8.10
2023-01-09T15:00:15.713Z,9.10
2023-01-09T15:02:43.818Z,6.23
2023-01-09T15:05:13.039Z,7.67
2023-01-09T15:07:44.389Z,7.90
2023-01-09T15:10:19.832Z,7.33
2023-01-09T15:12:48.468Z,8.43
2023-01-09T15:15:16.193Z,7.20
2023-01-09T15:17:46.447Z,6.20
2023-01-09T15:20:25.229Z,6.57
2023-01-09T15:22:54.756Z,6.50
2023-01-09T15:25:40.605Z,6.87
2023-01-09T15:28:34.288Z,5.13
2023-01-09T15:31:04.539Z,5.97
2023-01-09T15:33:31.989Z,5.33
2023-01-09T15:36:02.704Z,7.03
2023-01-09T15:38:31.659Z,5.37
2023-01-09T15:40:58.719Z,5.87
2023-01-09T15:43:27.054Z,5.70
2023-01-09T15:45:54.658Z,6.27
2023-01-09T15:48:21.801Z,5.10
2023-01-09T15:50:50.496Z,5.53
2023-01-09T15:53:19.893Z,5.27
2023-01-09T15:55:50.450Z,6.43
2023-01-09T15:58:30.723Z,4.90
2023-01-09T16:01:00.429Z,4.60
2023-01-09T16:03:27.793Z,6.30
2023-01-09T16:06:06.875Z,6.73
2023-01-09T16:08:34.347Z,4.63
2023-01-09T16:11:20.737Z,4.70
2023-01-09T16:13:47.911Z,4.90
2023-01-09T16:16:23.364Z,4.63
2023-01-09T16:18:51.484Z,4.83
2023-01-09T16:21:21.709Z,4.80
2023-01-09T16:23:55.598Z,4.83
2023-01-09T16:26:24.156Z,4.13
2023-01-09T16:28:51.539Z,5.20
2023-01-09T16:31:24.594Z,5.37
2023-01-09T16:34:05.853Z,4.03
2023-01-09T16:36:36.482Z,4.70
2023-01-09T16:39:06.630Z,4.63
2023-01-09T16:41:52.581Z,4.20
2023-01-09T16:44:19.651Z,4.17
2023-01-09T16:46:46.768Z,3.97
2023-01-09T16:49:18.084Z,4.50
2023-01-09T16:51:45.267Z,4.70
2023-01-09T16:54:12.469Z,5.20
2023-01-09T16:56:40.026Z,3.50
2023-01-09T16:59:11.558Z,3.63
2023-01-09T17:01:38.721Z,4.53
2023-01-09T17:04:11.285Z,6.80
2023-01-09T17:06:39.061Z,3.80
2023-01-09T17:09:06.402Z,3.73
2023-01-09T17:11:33.535Z,3.40
2023-01-09T17:14:01.271Z,4.57
2023-01-09T17:16:29.405Z,5.30
2023-01-09T17:18:56.637Z,5.97
2023-01-09T17:21:29.019Z,4.40
2023-01-09T17:24:15.256Z,4.87
2023-01-09T17:27:02.543Z,6.43
2023-01-09T17:29:30.203Z,3.63
2023-01-09T17:31:57.909Z,4.47
2023-01-09T17:34:25.059Z,3.60
2023-01-09T17:36:55.421Z,4.43
2023-01-09T17:39:23.621Z,4.90
2023-01-09T17:41:50.763Z,4.60
2023-01-09T17:44:17.904Z,4.20
2023-01-09T17:46:45.275Z,4.20
2023-01-09T17:49:17.145Z,3.87
2023-01-09T17:51:44.311Z,4.23
2023-01-09T17:54:11.693Z,4.03
2023-01-09T17:56:39.997Z,4.50
2023-01-09T17:59:10.456Z,4.03
2023-01-09T18:01:37.753Z,3.70
2023-01-09T18:04:05.008Z,3.83
2023-01-09T18:06:32.177Z,3.60
2023-01-09T18:08:59.423Z,4.60
2023-01-09T18:11:26.750Z,3.20
2023-01-09T18:13:54.054Z,4.60
2023-01-09T18:16:26.807Z,3.40
2023-01-09T18:18:54.961Z,4.83
2023-01-09T18:21:24.448Z,3.60
2023-01-09T18:23:51.604Z,4.73
2023-01-09T18:26:21.688Z,3.37
2023-01-09T18:28:52.822Z,3.43
2023-01-09T18:31:23.933Z,3.70
2023-01-09T18:33:52.528Z,3.53
2023-01-09T18:36:21.081Z,3.20
2023-01-09T18:38:52.432Z,3.23
2023-01-09T18:41:19.591Z,3.93
2023-01-09T18:43:54.130Z,3.97
2023-01-09T18:46:24.613Z,6.40
2023-01-09T18:48:52.752Z,2.60
2023-01-09T18:51:20.030Z,3.17
2023-01-09T18:53:47.261Z,3.47
2023-01-09T18:56:14.361Z,4.23
2023-01-09T18:58:41.576Z,3.20
2023-01-09T19:01:08.716Z,3.77
2023-01-09T19:03:35.882Z,5.63
2023-01-09T19:06:03.471Z,5.00
2023-01-09T19:08:31.153Z,4.77
2023-01-09T19:10:59.363Z,5.70
2023-01-09T19:13:30.129Z,4.93
2023-01-09T19:15:58.109Z,6.13
2023-01-09T19:18:25.753Z,6.60
2023-01-09T19:20:53.107Z,7.10
2023-01-09T19:23:20.671Z,7.20
2023-01-09T19:25:48.480Z,8.00
2023-01-09T19:28:15.686Z,6.23
2023-01-09T19:30:43.047Z,5.30
2023-01-09T19:33:11.509Z,10.07
2023-01-09T19:35:39.405Z,5.33
2023-01-09T19:38:06.854Z,5.37
2023-01-09T19:40:33.975Z,5.33
2023-01-09T19:43:01.126Z,6.00
2023-01-09T19:45:28.277Z,5.70
2023-01-09T19:47:56.485Z,6.53
2023-01-09T19:50:23.580Z,4.80
2023-01-09T19:52:50.973Z,5.80
2023-01-09T19:55:18.348Z,5.00
2023-01-09T19:57:46.585Z,5.10
2023-01-09T20:00:15.430Z,5.03
2023-01-09T20:02:42.757Z,4.03
2023-01-09T20:05:10.276Z,5.60
2023-01-09T20:07:37.493Z,5.00
2023-01-09T20:10:14.238Z,4.83
2023-01-09T20:12:41.502Z,6.43
2023-01-09T20:15:14.674Z,4.50
2023-01-09T20:17:42.223Z,4.20
2023-01-09T20:20:09.808Z,3.93
2023-01-09T20:22:36.946Z,5.10
2023-01-09T20:25:04.171Z,4.57
2023-01-09T20:27:31.278Z,3.90
2023-01-09T20:29:58.370Z,4.40
2023-01-09T20:32:25.450Z,4.30
2023-01-09T20:34:52.571Z,3.80
2023-01-09T20:37:19.745Z,4.33
2023-01-09T20:39:47.155Z,4.73
2023-01-09T20:42:14.235Z,4.10
2023-01-09T20:44:41.355Z,3.43
2023-01-09T20:47:08.486Z,4.97
2023-01-09T20:49:35.593Z,3.83
2023-01-09T20:52:03.872Z,3.30
2023-01-09T20:54:30.966Z,3.40
2023-01-09T20:56:58.090Z,5.40
2023-01-09T20:59:25.236Z,3.17
2023-01-09T21:01:52.920Z,3.50
2023-01-09T21:04:20.335Z,5.83
2023-01-09T21:06:49.777Z,3.10
2023-01-09T21:09:17.262Z,3.73
2023-01-09T21:11:44.390Z,4.53
2023-01-09T21:14:11.564Z,3.07
2023-01-09T21:16:38.704Z,3.40
2023-01-09T21:19:05.820Z,3.53
2023-01-09T21:21:32.947Z,5.67
2023-01-09T21:24:00.891Z,3.33
2023-01-09T21:26:30.482Z,3.70
2023-01-09T21:28:59.599Z,2.97
2023-01-09T21:31:34.301Z,2.80
2023-01-09T21:34:06.454Z,2.93
2023-01-09T21:36:35.156Z,3.57
2023-01-09T21:39:02.570Z,2.63
2023-01-09T21:41:48.239Z,2.77
2023-01-09T21:44:34.416Z,2.93
2023-01-09T21:47:02.280Z,2.60
2023-01-09T21:49:34.668Z,2.90
2023-01-09T21:52:03.415Z,2.73
2023-01-09T21:54:30.851Z,3.00
2023-01-09T21:56:58.043Z,2.60
2023-01-09T21:59:25.419Z,2.00
2023-01-09T22:01:52.639Z,2.73
2023-01-09T22:04:21.594Z,3.20
2023-01-09T22:06:48.758Z,2.53
2023-01-09T22:09:16.256Z,2.60
2023-01-09T22:11:43.820Z,2.63
2023-01-09T22:14:14.587Z,2.40
2023-01-09T22:16:42.363Z,3.20
2023-01-09T22:19:09.749Z,2.93
2023-01-09T22:21:36.883Z,6.20
2023-01-09T22:24:05.153Z,2.50
2023-01-09T22:26:33.693Z,2.93
2023-01-09T22:29:00.822Z,2.77
2023-01-09T22:31:32.833Z,2.53
2023-01-09T22:34:01.247Z,3.77
2023-01-09T22:36:29.178Z,2.60
2023-01-09T22:39:00.980Z,2.43
2023-01-09T22:41:29.727Z,2.67
2023-01-09T22:43:57.094Z,2.93
2023-01-09T22:46:24.290Z,3.33
2023-01-09T22:48:51.791Z,2.57
2023-01-09T22:51:19.920Z,4.40
2023-01-09T22:53:47.104Z,2.10
2023-01-09T22:56:15.480Z,2.20
2023-01-09T22:58:42.582Z,2.30
2023-01-09T23:01:13.127Z,2.73
2023-01-09T23:03:40.584Z,3.07
2023-01-09T23:06:09.476Z,2.63
2023-01-09T23:08:37.039Z,5.23
2023-01-09T23:11:06.145Z,2.40
2023-01-09T23:13:33.243Z,1.83
2023-01-09T23:16:01.735Z,2.17
2023-01-09T23:18:29.323Z,3.27
2023-01-09T23:21:05.734Z,2.50
2023-01-09T23:23:33.282Z,2.83
2023-01-09T23:26:02.684Z,2.40
2023-01-09T23:28:30.605Z,2.80
2023-01-09T23:30:58.057Z,2.60
2023-01-09T23:33:25.228Z,2.27
2023-01-09T23:35:52.393Z,2.80
2023-01-09T23:38:20.463Z,2.50
2023-01-09T23:40:47.683Z,2.07
2023-01-09T23:43:15.500Z,1.90
2023-01-09T23:45:46.458Z,1.97
2023-01-09T23:48:14.768Z,2.17
2023-01-09T23:51:00.019Z,2.23
2023-01-09T23:53:27.176Z,2.13
2023-01-09T23:55:55.241Z,2.37
2023-01-09T23:58:22.571Z,2.40
